• Join FlightAware (Why Join?)
  • Login
  • US Flag 
01:10PM EDT


 

Airport Tracker/Info


-or-


 

Live Flight TrackerFlight Track Log ✈ QXE2633 ✈ 19-Oct-2013 ✈ KPDX - KSMF

Flight Track Log - Related Links

Times and Time Zones

All times are in EDT time to prevent confusion due to time zone crossing. See the QXE2633 flight status page for this flight to view local times or setup timezone preferences in your user account.

Time Position Orientation Groundspeed Altitude Reporting Facility
EDT Latitude Longitude Course Direction KTS MPH feet Rate Location/Type
07:09PM 44.9928 -122.5006 172° South  Level Estimated
07:10PM 44.9103 -122.4677 164° South  Level FlightAware Approximate
07:11PM 44.8252 -122.4544 164° South  Level Estimated
07:12PM 44.7400 -122.4412 172° South  Level Estimated
07:13PM 44.6539 -122.4076 165° South  Level FlightAware Approximate
07:14PM 44.5678 -122.3742 165° South  Level FlightAware Approximate
07:15PM 44.4790 -122.3612 169° South  Level Estimated
07:16PM 44.3927 -122.3287 165° South  Level FlightAware Approximate
07:17PM 44.3064 -122.2962 165° South  Level FlightAware Approximate
07:18PM 44.2175 -122.2840 170° South  Level Estimated
07:19PM 44.1299 -122.2592 168° South  Level FlightAware Approximate
07:20PM 44.0424 -122.2345 169° South  Level FlightAware Approximate
07:21PM 43.9548 -122.2098 169° South  Level FlightAware Approximate
07:22PM 43.8673 -122.1851 169° South  Level FlightAware Approximate
07:23PM 43.7797 -122.1606 169° South  Level FlightAware Approximate
07:24PM 43.6921 -122.1361 169° South  Level FlightAware Approximate
07:25PM 43.6045 -122.1117 169° South  Level FlightAware Approximate
07:26PM 43.5170 -122.0874 169° South  Level FlightAware Approximate
07:27PM 43.4294 -122.0631 169° South  Level FlightAware Approximate
07:28PM 43.3418 -122.0389 169° South  Level FlightAware Approximate
07:29PM 43.2542 -122.0148 169° South  Level FlightAware Approximate
07:30PM 43.1666 -121.9908 169° South  Level FlightAware Approximate
07:31PM 43.0790 -121.9668 169° South  Level FlightAware Approximate
07:32PM 42.9914 -121.9429 169° South  Level FlightAware Approximate
07:33PM 42.9110 -121.9210 169° South  Level FlightAware Approximate
07:34PM 42.8306 -121.8991 169° South  Level FlightAware Approximate
07:35PM 42.7501 -121.8774 169° South  Level FlightAware Approximate
07:36PM 42.6683 -121.8712 180° South  Level Estimated
07:37PM 42.5870 -121.8468 168° South  Level FlightAware Approximate
07:38PM 42.5057 -121.8224 168° South  Level FlightAware Approximate
07:39PM 42.4244 -121.7982 168° South  Level FlightAware Approximate
07:40PM 42.3431 -121.7739 168° South  Level FlightAware Approximate
07:41PM 42.2617 -121.7498 168° South  Level FlightAware Approximate
07:42PM 42.1804 -121.7257 168° South  Level FlightAware Approximate
07:43PM 42.0974 -121.7167 180° South  Level FlightAware Approximate
07:44PM 42.0141 -121.7167 180° South  Level FlightAware Approximate
07:45PM 41.9308 -121.7167 180° South  Level FlightAware Approximate
07:46PM 41.8476 -121.7167 180° South  Level FlightAware Approximate
07:47PM 41.7643 -121.7167 180° South  Level FlightAware Approximate
07:48PM 41.6811 -121.7167 180° South  Level FlightAware Approximate
07:49PM 41.5978 -121.7167 180° South  Level FlightAware Approximate
07:50PM 41.5145 -121.7167 180° South  Level FlightAware Approximate
07:51PM 41.4313 -121.7167 180° South  Level FlightAware Approximate
07:52PM 41.3480 -121.7167 180° South  Level FlightAware Approximate
07:53PM 41.2648 -121.7167 180° South  Level FlightAware Approximate
07:54PM 41.1825 -121.7074 175° South  Level FlightAware Approximate
07:55PM 41.1001 -121.6990 177° South  Level FlightAware Approximate
07:56PM 41.0162 -121.6939 177° South  Level FlightAware Approximate
07:57PM 40.9323 -121.6888 177° South  Level FlightAware Approximate
07:58PM 40.8484 -121.6838 177° South  Level FlightAware Approximate
07:59PM 40.7644 -121.6787 177° South  Level FlightAware Approximate
08:00PM 40.6805 -121.6737 177° South  Level FlightAware Approximate
08:01PM 40.5966 -121.6686 177° South  Level FlightAware Approximate
08:02PM 40.5127 -121.6636 177° South  Level FlightAware Approximate
08:03PM 40.4288 -121.6586 177° South  Level FlightAware Approximate
08:04PM 40.3449 -121.6536 177° South  Level FlightAware Approximate
08:05PM 40.2610 -121.6500 180° South  Level FlightAware Approximate
08:06PM 40.1770 -121.6500 180° South  Level FlightAware Approximate
08:07PM 40.0929 -121.6493 176° South  Level FlightAware Approximate
08:08PM 40.0091 -121.6409 176° South  Level FlightAware Approximate
08:09PM 39.9252 -121.6330 178° South  Level FlightAware Approximate
08:10PM 39.8412 -121.6293 178° South  Level FlightAware Approximate
08:11PM 39.7571 -121.6256 178° South  Level FlightAware Approximate
08:12PM 39.6731 -121.6220 178° South  Level FlightAware Approximate
08:13PM 39.5890 -121.6184 178° South  Level FlightAware Approximate
08:14PM 39.5050 -121.6167 180° South  Level FlightAware Approximate
08:15PM 39.4210 -121.6104 176° South  Level FlightAware Approximate
08:16PM 39.3372 -121.6021 176° South  Level FlightAware Approximate
08:17PM 39.2532 -121.6000 180° South  Level FlightAware Approximate
08:18PM 39.1691 -121.6000 180° South  Level FlightAware Approximate
08:19PM 39.0851 -121.5979 174° South  Level FlightAware Approximate
08:20PM 39.0015 -121.5859 174° South  Level FlightAware Approximate
08:21PM 38.9175 -121.5833 180° South  Level FlightAware Approximate
08:22PM 38.8334 -121.5833 180° South  Level FlightAware Approximate
08:23PM 38.7493 -121.5833 180° South  Level FlightAware Approximate
08:24PM 38.6954 -121.5908 180° South  Level Estimated
08:25PM 38.6954 -121.5908 180° South  Level Estimated
08:26PM 38.6954 -121.5908 180° South  Level Estimated
08:27PM 38.6954 -121.5908 90° East  Level Estimated
08:28PM 38.6954 -121.5908 90° East  Level Estimated
08:29PM 38.6954 -121.5908 90° East  Level Estimated
08:30PM 38.6954 -121.5908 90° East  Level Estimated
08:31PM 38.6954 -121.5908 90° East  Level Estimated
08:32PM 38.6954 -121.5908 90° East  Level Estimated
08:33PM 38.6954 -121.5908 90° East  Level Estimated
08:34PM 38.6954 -121.5908 90° East  Level Estimated